sensor_id;sensor_type;location;lat;lon;timestamp;temperature;humidity
25046;DHT22;13044;49.304;12.840;2023-06-10T00:02:06;17.30;99.90
25046;DHT22;13044;49.304;12.840;2023-06-10T00:04:34;17.20;99.90
25046;DHT22;13044;49.304;12.840;2023-06-10T00:07:04;17.20;99.90
25046;DHT22;13044;49.304;12.840;2023-06-10T00:09:38;17.30;99.90
25046;DHT22;13044;49.304;12.840;2023-06-10T00:12:06;17.30;99.90
25046;DHT22;13044;49.304;12.840;2023-06-10T00:14:38;17.30;99.90
25046;DHT22;13044;49.304;12.840;2023-06-10T00:17:07;17.30;99.90
25046;DHT22;13044;49.304;12.840;2023-06-10T00:19:37;17.20;99.90
25046;DHT22;13044;49.304;12.840;2023-06-10T00:22:08;17.10;99.90
25046;DHT22;13044;49.304;12.840;2023-06-10T00:24:38;17.10;99.90
25046;DHT22;13044;49.304;12.840;2023-06-10T00:27:06;17.10;99.90
25046;DHT22;13044;49.304;12.840;2023-06-10T00:29:33;17.10;99.90
25046;DHT22;13044;49.304;12.840;2023-06-10T00:32:00;17.00;99.90
25046;DHT22;13044;49.304;12.840;2023-06-10T00:34:28;17.00;99.90
25046;DHT22;13044;49.304;12.840;2023-06-10T00:36:55;17.00;99.90
25046;DHT22;13044;49.304;12.840;2023-06-10T00:39:21;17.00;99.90
25046;DHT22;13044;49.304;12.840;2023-06-10T00:41:48;17.00;99.90
25046;DHT22;13044;49.304;12.840;2023-06-10T00:44:16;17.00;99.90
25046;DHT22;13044;49.304;12.840;2023-06-10T00:46:43;17.00;99.90
25046;DHT22;13044;49.304;12.840;2023-06-10T00:49:10;17.10;99.90
25046;DHT22;13044;49.304;12.840;2023-06-10T00:51:37;17.10;99.90
25046;DHT22;13044;49.304;12.840;2023-06-10T00:54:07;17.10;99.90
25046;DHT22;13044;49.304;12.840;2023-06-10T00:56:34;17.10;99.90
25046;DHT22;13044;49.304;12.840;2023-06-10T00:59:02;17.10;99.90
25046;DHT22;13044;49.304;12.840;2023-06-10T01:01:29;17.00;99.90
25046;DHT22;13044;49.304;12.840;2023-06-10T01:03:56;16.90;99.90
25046;DHT22;13044;49.304;12.840;2023-06-10T01:09:31;16.80;99.90
25046;DHT22;13044;49.304;12.840;2023-06-10T01:14:59;16.80;99.90
25046;DHT22;13044;49.304;12.840;2023-06-10T01:17:27;16.80;99.90
25046;DHT22;13044;49.304;12.840;2023-06-10T01:19:58;16.80;99.90
25046;DHT22;13044;49.304;12.840;2023-06-10T01:22:27;16.80;99.90
25046;DHT22;13044;49.304;12.840;2023-06-10T01:24:55;16.70;99.90
25046;DHT22;13044;49.304;12.840;2023-06-10T01:27:29;16.70;99.90
25046;DHT22;13044;49.304;12.840;2023-06-10T01:30:06;16.70;99.90
25046;DHT22;13044;49.304;12.840;2023-06-10T01:32:39;16.70;99.90
25046;DHT22;13044;49.304;12.840;2023-06-10T01:35:08;16.60;99.90
25046;DHT22;13044;49.304;12.840;2023-06-10T01:37:36;16.60;99.90
25046;DHT22;13044;49.304;12.840;2023-06-10T01:40:06;16.60;99.90
25046;DHT22;13044;49.304;12.840;2023-06-10T01:42:33;16.60;99.90
25046;DHT22;13044;49.304;12.840;2023-06-10T01:45:01;16.60;99.90
25046;DHT22;13044;49.304;12.840;2023-06-10T01:47:27;16.60;99.90
25046;DHT22;13044;49.304;12.840;2023-06-10T01:49:55;16.50;99.90
25046;DHT22;13044;49.304;12.840;2023-06-10T01:52:22;16.30;99.90
25046;DHT22;13044;49.304;12.840;2023-06-10T01:54:49;16.20;99.90
25046;DHT22;13044;49.304;12.840;2023-06-10T01:57:16;16.20;99.90
25046;DHT22;13044;49.304;12.840;2023-06-10T01:59:43;16.10;99.90
25046;DHT22;13044;49.304;12.840;2023-06-10T02:02:10;16.20;99.90
25046;DHT22;13044;49.304;12.840;2023-06-10T02:04:37;16.20;99.90
25046;DHT22;13044;49.304;12.840;2023-06-10T02:07:05;16.10;99.90
25046;DHT22;13044;49.304;12.840;2023-06-10T02:09:32;16.10;99.90
25046;DHT22;13044;49.304;12.840;2023-06-10T02:12:03;16.00;99.90
25046;DHT22;13044;49.304;12.840;2023-06-10T02:14:32;15.90;99.90
25046;DHT22;13044;49.304;12.840;2023-06-10T02:17:00;15.90;99.90
25046;DHT22;13044;49.304;12.840;2023-06-10T02:19:27;15.90;99.90
25046;DHT22;13044;49.304;12.840;2023-06-10T02:21:54;16.00;99.90
25046;DHT22;13044;49.304;12.840;2023-06-10T02:24:21;16.00;99.90
25046;DHT22;13044;49.304;12.840;2023-06-10T02:26:48;16.00;99.90
25046;DHT22;13044;49.304;12.840;2023-06-10T02:29:15;16.00;99.90
25046;DHT22;13044;49.304;12.840;2023-06-10T02:31:42;15.90;99.90
25046;DHT22;13044;49.304;12.840;2023-06-10T02:34:09;15.90;99.90
25046;DHT22;13044;49.304;12.840;2023-06-10T02:36:36;15.80;99.90
25046;DHT22;13044;49.304;12.840;2023-06-10T02:39:03;15.80;99.90
25046;DHT22;13044;49.304;12.840;2023-06-10T02:41:31;15.80;99.90
25046;DHT22;13044;49.304;12.840;2023-06-10T02:43:58;15.80;99.90
25046;DHT22;13044;49.304;12.840;2023-06-10T02:46:25;15.80;99.90
25046;DHT22;13044;49.304;12.840;2023-06-10T02:48:52;15.80;99.90
25046;DHT22;13044;49.304;12.840;2023-06-10T02:51:19;15.80;99.90
25046;DHT22;13044;49.304;12.840;2023-06-10T02:53:46;15.80;99.90
25046;DHT22;13044;49.304;12.840;2023-06-10T02:56:15;15.70;99.90
25046;DHT22;13044;49.304;12.840;2023-06-10T02:58:43;15.60;99.90
25046;DHT22;13044;49.304;12.840;2023-06-10T03:01:10;15.60;99.90
25046;DHT22;13044;49.304;12.840;2023-06-10T03:03:37;15.60;99.90
25046;DHT22;13044;49.304;12.840;2023-06-10T03:06:13;15.60;99.90
25046;DHT22;13044;49.304;12.840;2023-06-10T03:08:40;15.60;99.90
25046;DHT22;13044;49.304;12.840;2023-06-10T03:11:07;15.60;99.90
25046;DHT22;13044;49.304;12.840;2023-06-10T03:13:34;15.70;99.90
25046;DHT22;13044;49.304;12.840;2023-06-10T03:16:01;15.60;99.90
25046;DHT22;13044;49.304;12.840;2023-06-10T03:18:29;15.70;99.90
25046;DHT22;13044;49.304;12.840;2023-06-10T03:20:56;15.70;99.90
25046;DHT22;13044;49.304;12.840;2023-06-10T03:23:24;15.70;99.90
25046;DHT22;13044;49.304;12.840;2023-06-10T03:25:50;15.80;99.90
25046;DHT22;13044;49.304;12.840;2023-06-10T03:28:17;15.80;99.90
25046;DHT22;13044;49.304;12.840;2023-06-10T03:30:44;15.80;99.90
25046;DHT22;13044;49.304;12.840;2023-06-10T03:33:11;15.80;99.90
25046;DHT22;13044;49.304;12.840;2023-06-10T03:35:38;15.90;99.90
25046;DHT22;13044;49.304;12.840;2023-06-10T03:38:05;15.90;99.90
25046;DHT22;13044;49.304;12.840;2023-06-10T03:40:32;15.90;99.90
25046;DHT22;13044;49.304;12.840;2023-06-10T03:43:00;15.90;99.90
25046;DHT22;13044;49.304;12.840;2023-06-10T03:45:27;15.90;99.90
25046;DHT22;13044;49.304;12.840;2023-06-10T03:47:57;16.00;99.90
25046;DHT22;13044;49.304;12.840;2023-06-10T03:50:24;16.00;99.90
25046;DHT22;13044;49.304;12.840;2023-06-10T03:52:51;16.00;99.90
25046;DHT22;13044;49.304;12.840;2023-06-10T03:55:18;16.10;99.90
25046;DHT22;13044;49.304;12.840;2023-06-10T03:57:49;16.10;99.90
25046;DHT22;13044;49.304;12.840;2023-06-10T04:00:16;16.10;99.90
25046;DHT22;13044;49.304;12.840;2023-06-10T04:02:44;16.00;99.90
25046;DHT22;13044;49.304;12.840;2023-06-10T04:05:16;16.00;99.90
25046;DHT22;13044;49.304;12.840;2023-06-10T04:07:43;16.00;99.90
25046;DHT22;13044;49.304;12.840;2023-06-10T04:10:11;15.90;99.90
25046;DHT22;13044;49.304;12.840;2023-06-10T04:12:38;15.90;99.90
25046;DHT22;13044;49.304;12.840;2023-06-10T04:15:05;16.00;99.90
25046;DHT22;13044;49.304;12.840;2023-06-10T04:17:34;16.00;99.90
25046;DHT22;13044;49.304;12.840;2023-06-10T04:20:01;16.00;99.90
25046;DHT22;13044;49.304;12.840;2023-06-10T04:22:30;16.10;99.90
25046;DHT22;13044;49.304;12.840;2023-06-10T04:24:57;16.10;99.90
25046;DHT22;13044;49.304;12.840;2023-06-10T04:27:25;16.10;99.90
25046;DHT22;13044;49.304;12.840;2023-06-10T04:29:52;16.00;99.90
25046;DHT22;13044;49.304;12.840;2023-06-10T04:32:19;16.10;99.90
25046;DHT22;13044;49.304;12.840;2023-06-10T04:34:46;16.10;99.90
25046;DHT22;13044;49.304;12.840;2023-06-10T04:37:13;16.10;99.90
25046;DHT22;13044;49.304;12.840;2023-06-10T04:39:41;16.10;99.90
25046;DHT22;13044;49.304;12.840;2023-06-10T04:42:08;16.20;99.90
25046;DHT22;13044;49.304;12.840;2023-06-10T04:44:35;16.20;99.90
25046;DHT22;13044;49.304;12.840;2023-06-10T04:47:01;16.30;99.90
25046;DHT22;13044;49.304;12.840;2023-06-10T04:49:28;16.30;99.90
25046;DHT22;13044;49.304;12.840;2023-06-10T04:51:56;16.80;99.90
25046;DHT22;13044;49.304;12.840;2023-06-10T04:54:23;18.50;99.90
25046;DHT22;13044;49.304;12.840;2023-06-10T04:56:50;20.60;99.90
25046;DHT22;13044;49.304;12.840;2023-06-10T04:59:16;22.70;99.90
25046;DHT22;13044;49.304;12.840;2023-06-10T05:01:43;24.30;99.90
25046;DHT22;13044;49.304;12.840;2023-06-10T05:04:11;25.60;97.80
25046;DHT22;13044;49.304;12.840;2023-06-10T05:06:37;26.50;94.80
25046;DHT22;13044;49.304;12.840;2023-06-10T05:09:04;27.30;92.20
25046;DHT22;13044;49.304;12.840;2023-06-10T05:11:31;28.10;89.00
25046;DHT22;13044;49.304;12.840;2023-06-10T05:13:58;28.60;84.70
25046;DHT22;13044;49.304;12.840;2023-06-10T05:16:25;29.00;81.40
25046;DHT22;13044;49.304;12.840;2023-06-10T05:18:52;29.30;78.20
25046;DHT22;13044;49.304;12.840;2023-06-10T05:21:19;29.40;76.30
25046;DHT22;13044;49.304;12.840;2023-06-10T05:23:47;29.40;75.70
25046;DHT22;13044;49.304;12.840;2023-06-10T05:26:14;29.50;73.10
25046;DHT22;13044;49.304;12.840;2023-06-10T05:28:41;29.10;73.00
25046;DHT22;13044;49.304;12.840;2023-06-10T05:31:08;28.00;76.90
25046;DHT22;13044;49.304;12.840;2023-06-10T05:33:34;26.60;82.50
25046;DHT22;13044;49.304;12.840;2023-06-10T05:36:02;25.60;89.00
25046;DHT22;13044;49.304;12.840;2023-06-10T05:38:29;24.60;91.90
25046;DHT22;13044;49.304;12.840;2023-06-10T05:40:55;23.70;94.10
25046;DHT22;13044;49.304;12.840;2023-06-10T05:43:23;23.10;96.60
25046;DHT22;13044;49.304;12.840;2023-06-10T05:45:50;22.70;98.70
25046;DHT22;13044;49.304;12.840;2023-06-10T05:48:17;22.40;99.90
25046;DHT22;13044;49.304;12.840;2023-06-10T05:50:46;21.90;99.90
25046;DHT22;13044;49.304;12.840;2023-06-10T05:53:15;21.70;99.90
25046;DHT22;13044;49.304;12.840;2023-06-10T05:55:46;21.70;99.90
25046;DHT22;13044;49.304;12.840;2023-06-10T05:58:13;21.60;99.90
25046;DHT22;13044;49.304;12.840;2023-06-10T06:00:41;21.20;99.90
25046;DHT22;13044;49.304;12.840;2023-06-10T06:03:08;21.00;99.90
25046;DHT22;13044;49.304;12.840;2023-06-10T06:05:39;21.00;99.90
25046;DHT22;13044;49.304;12.840;2023-06-10T06:08:07;21.00;99.90
25046;DHT22;13044;49.304;12.840;2023-06-10T06:10:34;21.00;99.90
25046;DHT22;13044;49.304;12.840;2023-06-10T06:13:01;20.80;99.90
25046;DHT22;13044;49.304;12.840;2023-06-10T06:15:28;20.90;99.90
25046;DHT22;13044;49.304;12.840;2023-06-10T06:17:55;21.00;99.90
25046;DHT22;13044;49.304;12.840;2023-06-10T06:20:23;21.00;99.90
25046;DHT22;13044;49.304;12.840;2023-06-10T06:22:50;20.80;99.90
25046;DHT22;13044;49.304;12.840;2023-06-10T06:25:16;20.80;99.90
25046;DHT22;13044;49.304;12.840;2023-06-10T06:27:43;20.70;99.90
25046;DHT22;13044;49.304;12.840;2023-06-10T06:30:10;20.90;99.90
25046;DHT22;13044;49.304;12.840;2023-06-10T06:32:37;21.00;99.90
25046;DHT22;13044;49.304;12.840;2023-06-10T06:35:05;21.20;99.90
25046;DHT22;13044;49.304;12.840;2023-06-10T06:37:35;21.30;99.90
25046;DHT22;13044;49.304;12.840;2023-06-10T06:40:03;21.40;99.90
25046;DHT22;13044;49.304;12.840;2023-06-10T06:42:30;21.40;99.90
25046;DHT22;13044;49.304;12.840;2023-06-10T06:44:57;21.50;99.90
25046;DHT22;13044;49.304;12.840;2023-06-10T06:47:24;21.50;99.90
25046;DHT22;13044;49.304;12.840;2023-06-10T06:49:51;21.60;99.90
25046;DHT22;13044;49.304;12.840;2023-06-10T06:52:18;21.70;99.90
25046;DHT22;13044;49.304;12.840;2023-06-10T06:54:45;21.80;99.90
25046;DHT22;13044;49.304;12.840;2023-06-10T06:57:12;21.90;99.90
25046;DHT22;13044;49.304;12.840;2023-06-10T06:59:39;21.90;99.90
25046;DHT22;13044;49.304;12.840;2023-06-10T07:02:06;21.70;99.90
25046;DHT22;13044;49.304;12.840;2023-06-10T07:04:33;21.70;99.90
25046;DHT22;13044;49.304;12.840;2023-06-10T07:07:00;21.70;99.90
25046;DHT22;13044;49.304;12.840;2023-06-10T07:09:27;21.40;99.90
25046;DHT22;13044;49.304;12.840;2023-06-10T07:11:54;21.40;99.90
25046;DHT22;13044;49.304;12.840;2023-06-10T07:14:21;21.30;99.90
25046;DHT22;13044;49.304;12.840;2023-06-10T07:16:48;21.20;99.90
25046;DHT22;13044;49.304;12.840;2023-06-10T07:19:16;21.20;99.90
25046;DHT22;13044;49.304;12.840;2023-06-10T07:21:43;21.30;99.90
25046;DHT22;13044;49.304;12.840;2023-06-10T07:24:10;21.30;99.90
25046;DHT22;13044;49.304;12.840;2023-06-10T07:26:37;21.40;99.90
25046;DHT22;13044;49.304;12.840;2023-06-10T07:29:04;21.30;99.90
25046;DHT22;13044;49.304;12.840;2023-06-10T07:31:31;21.40;99.90
25046;DHT22;13044;49.304;12.840;2023-06-10T07:33:58;21.60;99.90
25046;DHT22;13044;49.304;12.840;2023-06-10T07:36:25;21.80;99.90
25046;DHT22;13044;49.304;12.840;2023-06-10T07:38:54;21.80;99.90
25046;DHT22;13044;49.304;12.840;2023-06-10T07:41:23;21.90;99.90
25046;DHT22;13044;49.304;12.840;2023-06-10T07:43:53;22.00;99.90
25046;DHT22;13044;49.304;12.840;2023-06-10T07:46:23;22.10;99.90
25046;DHT22;13044;49.304;12.840;2023-06-10T07:48:51;22.30;99.90
25046;DHT22;13044;49.304;12.840;2023-06-10T07:51:18;22.40;99.90
25046;DHT22;13044;49.304;12.840;2023-06-10T07:53:45;22.60;99.90
25046;DHT22;13044;49.304;12.840;2023-06-10T07:56:12;22.60;99.90
25046;DHT22;13044;49.304;12.840;2023-06-10T07:58:39;22.50;99.90
25046;DHT22;13044;49.304;12.840;2023-06-10T08:01:05;22.20;99.90
25046;DHT22;13044;49.304;12.840;2023-06-10T08:03:33;22.30;99.90
25046;DHT22;13044;49.304;12.840;2023-06-10T08:06:00;22.40;99.90
25046;DHT22;13044;49.304;12.840;2023-06-10T08:08:27;22.50;99.90
25046;DHT22;13044;49.304;12.840;2023-06-10T08:10:54;22.70;99.90
25046;DHT22;13044;49.304;12.840;2023-06-10T08:13:21;22.70;99.90
25046;DHT22;13044;49.304;12.840;2023-06-10T08:15:48;22.80;99.90
25046;DHT22;13044;49.304;12.840;2023-06-10T08:18:17;23.10;99.90
25046;DHT22;13044;49.304;12.840;2023-06-10T08:20:44;23.30;99.90
25046;DHT22;13044;49.304;12.840;2023-06-10T08:23:11;23.30;99.90
25046;DHT22;13044;49.304;12.840;2023-06-10T08:25:38;23.30;99.90
25046;DHT22;13044;49.304;12.840;2023-06-10T08:28:04;23.30;99.90
25046;DHT22;13044;49.304;12.840;2023-06-10T08:30:31;23.50;99.90
25046;DHT22;13044;49.304;12.840;2023-06-10T08:32:58;23.60;99.90
25046;DHT22;13044;49.304;12.840;2023-06-10T08:35:26;23.60;99.90
25046;DHT22;13044;49.304;12.840;2023-06-10T08:37:53;23.50;99.80
25046;DHT22;13044;49.304;12.840;2023-06-10T08:40:20;23.40;99.90
25046;DHT22;13044;49.304;12.840;2023-06-10T08:43:00;23.60;99.90
25046;DHT22;13044;49.304;12.840;2023-06-10T08:45:31;23.70;99.90
25046;DHT22;13044;49.304;12.840;2023-06-10T08:48:05;23.80;99.90
25046;DHT22;13044;49.304;12.840;2023-06-10T08:50:36;23.80;99.90
25046;DHT22;13044;49.304;12.840;2023-06-10T08:53:05;23.50;99.90
25046;DHT22;13044;49.304;12.840;2023-06-10T08:55:36;23.50;99.90
25046;DHT22;13044;49.304;12.840;2023-06-10T08:58:04;23.30;99.90
25046;DHT22;13044;49.304;12.840;2023-06-10T09:00:32;23.30;99.90
25046;DHT22;13044;49.304;12.840;2023-06-10T09:02:59;23.10;99.90
25046;DHT22;13044;49.304;12.840;2023-06-10T09:05:33;23.10;99.90
25046;DHT22;13044;49.304;12.840;2023-06-10T09:08:00;23.30;99.90
25046;DHT22;13044;49.304;12.840;2023-06-10T09:10:30;23.30;99.90
25046;DHT22;13044;49.304;12.840;2023-06-10T09:13:01;23.30;99.90
25046;DHT22;13044;49.304;12.840;2023-06-10T09:15:27;23.30;99.90
25046;DHT22;13044;49.304;12.840;2023-06-10T09:17:54;23.20;99.90
25046;DHT22;13044;49.304;12.840;2023-06-10T09:20:23;23.10;99.90
25046;DHT22;13044;49.304;12.840;2023-06-10T09:22:51;23.00;99.90
25046;DHT22;13044;49.304;12.840;2023-06-10T09:25:18;23.00;99.90
25046;DHT22;13044;49.304;12.840;2023-06-10T09:27:49;23.20;99.90
25046;DHT22;13044;49.304;12.840;2023-06-10T09:30:31;23.30;99.90
25046;DHT22;13044;49.304;12.840;2023-06-10T09:33:10;23.40;99.90
25046;DHT22;13044;49.304;12.840;2023-06-10T09:35:48;23.40;98.60
25046;DHT22;13044;49.304;12.840;2023-06-10T09:38:22;23.40;99.70
25046;DHT22;13044;49.304;12.840;2023-06-10T09:40:54;23.60;98.90
25046;DHT22;13044;49.304;12.840;2023-06-10T09:43:21;23.80;98.30
25046;DHT22;13044;49.304;12.840;2023-06-10T09:45:49;23.80;97.10
25046;DHT22;13044;49.304;12.840;2023-06-10T09:48:19;23.80;98.00
25046;DHT22;13044;49.304;12.840;2023-06-10T09:50:46;23.70;98.70
25046;DHT22;13044;49.304;12.840;2023-06-10T09:53:14;23.90;99.00
25046;DHT22;13044;49.304;12.840;2023-06-10T09:55:41;24.20;98.90
25046;DHT22;13044;49.304;12.840;2023-06-10T09:58:08;24.60;97.00
25046;DHT22;13044;49.304;12.840;2023-06-10T10:00:36;24.80;95.90
25046;DHT22;13044;49.304;12.840;2023-06-10T10:03:03;24.90;94.70
25046;DHT22;13044;49.304;12.840;2023-06-10T10:05:30;25.00;95.40
25046;DHT22;13044;49.304;12.840;2023-06-10T10:07:57;25.20;94.90
25046;DHT22;13044;49.304;12.840;2023-06-10T10:10:24;25.30;93.90
25046;DHT22;13044;49.304;12.840;2023-06-10T10:12:54;25.40;93.90
25046;DHT22;13044;49.304;12.840;2023-06-10T10:15:29;25.50;93.90
25046;DHT22;13044;49.304;12.840;2023-06-10T10:18:09;25.20;93.50
25046;DHT22;13044;49.304;12.840;2023-06-10T10:20:51;25.20;91.80
25046;DHT22;13044;49.304;12.840;2023-06-10T10:23:24;25.20;92.00
25046;DHT22;13044;49.304;12.840;2023-06-10T10:25:57;25.30;90.50
25046;DHT22;13044;49.304;12.840;2023-06-10T10:28:37;25.10;91.20
25046;DHT22;13044;49.304;12.840;2023-06-10T10:31:16;24.90;89.40
25046;DHT22;13044;49.304;12.840;2023-06-10T10:33:54;24.70;90.80
25046;DHT22;13044;49.304;12.840;2023-06-10T10:36:24;24.50;91.50
25046;DHT22;13044;49.304;12.840;2023-06-10T10:38:52;24.50;91.80
25046;DHT22;13044;49.304;12.840;2023-06-10T10:41:19;24.60;92.60
25046;DHT22;13044;49.304;12.840;2023-06-10T10:43:47;24.80;92.40
25046;DHT22;13044;49.304;12.840;2023-06-10T10:46:18;24.70;90.50
25046;DHT22;13044;49.304;12.840;2023-06-10T10:48:47;24.60;90.50
25046;DHT22;13044;49.304;12.840;2023-06-10T10:51:19;24.60;90.50
25046;DHT22;13044;49.304;12.840;2023-06-10T10:57:14;24.60;90.00
25046;DHT22;13044;49.304;12.840;2023-06-10T10:59:56;25.00;90.40
25046;DHT22;13044;49.304;12.840;2023-06-10T11:02:44;25.30;90.00
25046;DHT22;13044;49.304;12.840;2023-06-10T11:05:16;25.20;87.30
25046;DHT22;13044;49.304;12.840;2023-06-10T11:07:54;25.30;87.90
25046;DHT22;13044;49.304;12.840;2023-06-10T11:10:51;25.40;88.40
25046;DHT22;13044;49.304;12.840;2023-06-10T11:13:20;25.50;90.00
25046;DHT22;13044;49.304;12.840;2023-06-10T11:15:49;25.60;90.30
25046;DHT22;13044;49.304;12.840;2023-06-10T11:18:29;25.50;91.10
25046;DHT22;13044;49.304;12.840;2023-06-10T11:21:01;25.30;91.30
25046;DHT22;13044;49.304;12.840;2023-06-10T11:31:26;24.70;91.80
25046;DHT22;13044;49.304;12.840;2023-06-10T11:33:56;24.70;91.00
25046;DHT22;13044;49.304;12.840;2023-06-10T11:36:24;25.00;91.70
25046;DHT22;13044;49.304;12.840;2023-06-10T11:38:58;25.00;90.90
25046;DHT22;13044;49.304;12.840;2023-06-10T11:41:27;25.00;94.60
25046;DHT22;13044;49.304;12.840;2023-06-10T11:43:56;24.80;95.90
25046;DHT22;13044;49.304;12.840;2023-06-10T11:46:25;24.60;98.20
25046;DHT22;13044;49.304;12.840;2023-06-10T11:48:56;24.50;99.90
25046;DHT22;13044;49.304;12.840;2023-06-10T11:51:30;24.40;99.90
25046;DHT22;13044;49.304;12.840;2023-06-10T11:53:59;24.20;97.00
25046;DHT22;13044;49.304;12.840;2023-06-10T11:56:27;24.10;98.60
25046;DHT22;13044;49.304;12.840;2023-06-10T11:58:59;24.10;98.00
25046;DHT22;13044;49.304;12.840;2023-06-10T12:01:33;24.40;96.90
25046;DHT22;13044;49.304;12.840;2023-06-10T12:04:12;24.60;96.40
25046;DHT22;13044;49.304;12.840;2023-06-10T12:09:29;24.80;94.70
25046;DHT22;13044;49.304;12.840;2023-06-10T12:12:01;24.90;94.00
25046;DHT22;13044;49.304;12.840;2023-06-10T12:14:55;25.00;93.60
25046;DHT22;13044;49.304;12.840;2023-06-10T12:20:02;25.40;92.10
25046;DHT22;13044;49.304;12.840;2023-06-10T12:22:41;25.40;92.20
25046;DHT22;13044;49.304;12.840;2023-06-10T12:25:09;25.30;91.90
25046;DHT22;13044;49.304;12.840;2023-06-10T12:27:39;25.20;92.40
25046;DHT22;13044;49.304;12.840;2023-06-10T12:30:07;25.00;92.30
25046;DHT22;13044;49.304;12.840;2023-06-10T12:32:39;25.00;92.70
25046;DHT22;13044;49.304;12.840;2023-06-10T12:35:11;24.90;93.20
25046;DHT22;13044;49.304;12.840;2023-06-10T12:37:40;24.70;93.50
25046;DHT22;13044;49.304;12.840;2023-06-10T12:40:10;24.70;94.20
25046;DHT22;13044;49.304;12.840;2023-06-10T12:42:38;24.60;94.70
25046;DHT22;13044;49.304;12.840;2023-06-10T12:45:05;24.60;94.90
25046;DHT22;13044;49.304;12.840;2023-06-10T12:47:37;24.50;96.70
25046;DHT22;13044;49.304;12.840;2023-06-10T12:50:06;24.30;97.20
25046;DHT22;13044;49.304;12.840;2023-06-10T12:52:34;24.10;98.60
25046;DHT22;13044;49.304;12.840;2023-06-10T12:55:01;24.00;99.90
25046;DHT22;13044;49.304;12.840;2023-06-10T12:57:28;23.90;99.90
25046;DHT22;13044;49.304;12.840;2023-06-10T12:59:56;24.00;99.90
25046;DHT22;13044;49.304;12.840;2023-06-10T13:02:29;24.00;99.90
25046;DHT22;13044;49.304;12.840;2023-06-10T13:04:56;24.10;99.90
25046;DHT22;13044;49.304;12.840;2023-06-10T13:07:23;23.90;99.90
25046;DHT22;13044;49.304;12.840;2023-06-10T13:09:51;24.00;99.90
25046;DHT22;13044;49.304;12.840;2023-06-10T13:12:18;23.80;99.90
25046;DHT22;13044;49.304;12.840;2023-06-10T13:14:59;23.90;99.90
25046;DHT22;13044;49.304;12.840;2023-06-10T13:17:26;24.10;99.90
25046;DHT22;13044;49.304;12.840;2023-06-10T13:19:53;24.30;99.90
25046;DHT22;13044;49.304;12.840;2023-06-10T13:22:20;24.50;99.90
25046;DHT22;13044;49.304;12.840;2023-06-10T13:24:48;24.70;99.90
25046;DHT22;13044;49.304;12.840;2023-06-10T13:27:14;24.90;99.90
25046;DHT22;13044;49.304;12.840;2023-06-10T13:29:41;25.20;99.90
25046;DHT22;13044;49.304;12.840;2023-06-10T13:32:08;25.40;99.90
25046;DHT22;13044;49.304;12.840;2023-06-10T13:34:35;25.50;99.90
25046;DHT22;13044;49.304;12.840;2023-06-10T13:37:02;25.40;98.90
25046;DHT22;13044;49.304;12.840;2023-06-10T13:39:31;25.30;98.30
25046;DHT22;13044;49.304;12.840;2023-06-10T13:41:58;25.20;98.20
25046;DHT22;13044;49.304;12.840;2023-06-10T13:44:25;25.10;97.80
25046;DHT22;13044;49.304;12.840;2023-06-10T13:46:52;24.70;99.90
25046;DHT22;13044;49.304;12.840;2023-06-10T13:49:19;24.50;99.90
25046;DHT22;13044;49.304;12.840;2023-06-10T13:51:46;24.10;99.90
25046;DHT22;13044;49.304;12.840;2023-06-10T13:54:13;24.00;99.90
25046;DHT22;13044;49.304;12.840;2023-06-10T13:56:42;23.80;99.90
25046;DHT22;13044;49.304;12.840;2023-06-10T13:59:08;23.80;99.90
25046;DHT22;13044;49.304;12.840;2023-06-10T14:01:35;23.90;99.90
25046;DHT22;13044;49.304;12.840;2023-06-10T14:04:02;23.90;99.90
25046;DHT22;13044;49.304;12.840;2023-06-10T14:06:30;23.90;99.90
25046;DHT22;13044;49.304;12.840;2023-06-10T14:08:57;23.80;99.90
25046;DHT22;13044;49.304;12.840;2023-06-10T14:11:24;23.80;99.90
25046;DHT22;13044;49.304;12.840;2023-06-10T14:13:51;23.80;99.90
25046;DHT22;13044;49.304;12.840;2023-06-10T14:16:18;23.70;98.40
25046;DHT22;13044;49.304;12.840;2023-06-10T14:18:45;23.80;96.60
25046;DHT22;13044;49.304;12.840;2023-06-10T14:21:11;23.80;96.30
25046;DHT22;13044;49.304;12.840;2023-06-10T14:23:38;23.80;96.60
25046;DHT22;13044;49.304;12.840;2023-06-10T14:26:05;23.90;96.00
25046;DHT22;13044;49.304;12.840;2023-06-10T14:28:33;24.00;96.40
25046;DHT22;13044;49.304;12.840;2023-06-10T14:31:00;24.00;96.10
25046;DHT22;13044;49.304;12.840;2023-06-10T14:33:27;24.10;96.00
25046;DHT22;13044;49.304;12.840;2023-06-10T14:35:55;24.00;95.10
25046;DHT22;13044;49.304;12.840;2023-06-10T14:38:21;24.00;94.80
25046;DHT22;13044;49.304;12.840;2023-06-10T14:40:49;24.10;95.10
25046;DHT22;13044;49.304;12.840;2023-06-10T14:43:16;24.20;95.10
25046;DHT22;13044;49.304;12.840;2023-06-10T14:45:42;24.50;94.70
25046;DHT22;13044;49.304;12.840;2023-06-10T14:48:10;24.80;93.60
25046;DHT22;13044;49.304;12.840;2023-06-10T14:50:38;24.90;93.60
25046;DHT22;13044;49.304;12.840;2023-06-10T14:53:07;24.90;93.10
25046;DHT22;13044;49.304;12.840;2023-06-10T14:55:33;24.80;93.10
25046;DHT22;13044;49.304;12.840;2023-06-10T14:58:00;24.80;93.80
25046;DHT22;13044;49.304;12.840;2023-06-10T15:00:27;24.90;93.90
25046;DHT22;13044;49.304;12.840;2023-06-10T15:02:54;25.20;93.00
25046;DHT22;13044;49.304;12.840;2023-06-10T15:05:24;25.50;92.10
25046;DHT22;13044;49.304;12.840;2023-06-10T15:07:52;25.80;91.60
25046;DHT22;13044;49.304;12.840;2023-06-10T15:10:19;26.10;90.40
25046;DHT22;13044;49.304;12.840;2023-06-10T15:12:50;26.20;89.10
25046;DHT22;13044;49.304;12.840;2023-06-10T15:15:23;26.30;90.20
25046;DHT22;13044;49.304;12.840;2023-06-10T15:17:52;26.20;90.00
25046;DHT22;13044;49.304;12.840;2023-06-10T15:20:20;26.30;90.10
25046;DHT22;13044;49.304;12.840;2023-06-10T15:22:46;26.40;89.90
25046;DHT22;13044;49.304;12.840;2023-06-10T15:25:14;26.40;87.90
25046;DHT22;13044;49.304;12.840;2023-06-10T15:27:43;26.30;85.90
25046;DHT22;13044;49.304;12.840;2023-06-10T15:30:10;26.50;85.40
25046;DHT22;13044;49.304;12.840;2023-06-10T15:32:37;26.20;83.20
25046;DHT22;13044;49.304;12.840;2023-06-10T15:35:04;26.00;85.10
25046;DHT22;13044;49.304;12.840;2023-06-10T15:37:32;26.00;86.10
25046;DHT22;13044;49.304;12.840;2023-06-10T15:39:59;25.90;85.40
25046;DHT22;13044;49.304;12.840;2023-06-10T15:42:26;25.50;87.80
25046;DHT22;13044;49.304;12.840;2023-06-10T15:44:53;25.50;88.40
25046;DHT22;13044;49.304;12.840;2023-06-10T15:47:20;25.60;88.20